createdAt,value
2019-02-08T00:02:28.775Z,22.07
2019-02-08T00:07:25.121Z,23.10
2019-02-08T00:12:21.441Z,20.37
2019-02-08T00:17:20.955Z,17.87
2019-02-08T00:22:23.105Z,22.67
2019-02-08T00:27:21.343Z,20.33
2019-02-08T00:32:20.122Z,25.87
2019-02-08T00:37:16.570Z,25.80
2019-02-08T00:42:19.962Z,23.43
2019-02-08T00:47:16.980Z,21.63
2019-02-08T00:52:13.250Z,22.53
2019-02-08T00:57:09.409Z,20.33
2019-02-08T01:02:07.010Z,23.27
2019-02-08T01:07:03.285Z,24.27
2019-02-08T01:11:59.731Z,27.10
2019-02-08T01:16:55.938Z,26.77
2019-02-08T01:21:52.089Z,22.97
2019-02-08T01:26:51.908Z,24.73
2019-02-08T01:31:48.190Z,22.50
2019-02-08T01:36:44.981Z,23.23
2019-02-08T01:41:45.779Z,26.13
2019-02-08T01:46:41.784Z,25.30
2019-02-08T01:51:37.945Z,26.93
2019-02-08T01:56:33.955Z,29.27
2019-02-08T02:01:32.078Z,23.53
2019-02-08T02:06:31.268Z,24.73
2019-02-08T02:11:28.610Z,28.33
2019-02-08T02:16:30.306Z,21.30
2019-02-08T02:21:31.059Z,22.67
2019-02-08T02:26:29.840Z,26.43
2019-02-08T02:31:26.074Z,26.30
2019-02-08T02:36:22.427Z,21.93
2019-02-08T02:41:20.498Z,25.97
2019-02-08T02:46:18.937Z,22.63
2019-02-08T02:51:16.169Z,23.30
2019-02-08T02:56:12.545Z,25.07
2019-02-08T03:01:11.951Z,21.33
2019-02-08T03:06:10.636Z,28.67
2019-02-08T03:11:14.047Z,22.07
2019-02-08T03:16:11.703Z,27.13
2019-02-08T03:21:09.748Z,25.43
2019-02-08T03:26:09.147Z,25.43
2019-02-08T03:31:09.091Z,20.97
2019-02-08T03:36:05.995Z,21.53
2019-02-08T03:41:02.073Z,21.97
2019-02-08T03:45:58.213Z,23.73
2019-02-08T03:50:54.255Z,19.13
2019-02-08T03:55:58.105Z,18.97
2019-02-08T04:01:03.586Z,17.33
2019-02-08T04:06:01.279Z,17.27
2019-02-08T04:10:59.230Z,14.93
2019-02-08T04:15:55.551Z,16.57
2019-02-08T04:20:54.520Z,17.90
2019-02-08T04:25:53.716Z,22.43
2019-02-08T04:30:49.982Z,17.60
2019-02-08T04:35:47.072Z,18.77
2019-02-08T04:40:48.506Z,20.67
2019-02-08T04:45:44.982Z,20.97
2019-02-08T04:50:43.934Z,15.27
2019-02-08T04:55:43.999Z,17.93
2019-02-08T05:00:41.064Z,15.13
2019-02-08T05:05:37.471Z,30.60
2019-02-08T05:10:36.170Z,20.03
2019-02-08T05:15:32.987Z,19.10
2019-02-08T05:20:29.778Z,21.63
2019-02-08T05:25:31.966Z,22.10
2019-02-08T05:30:38.415Z,19.70
2019-02-08T05:35:37.824Z,24.73
2019-02-08T05:40:38.909Z,42.97
2019-02-08T05:45:36.466Z,23.77
2019-02-08T05:50:38.054Z,21.27
2019-02-08T05:55:43.228Z,20.63
2019-02-08T06:01:00.002Z,26.67
2019-02-08T06:05:57.799Z,16.37
2019-02-08T06:10:53.833Z,14.80
2019-02-08T06:15:50.822Z,15.67
2019-02-08T06:20:51.149Z,24.27
2019-02-08T06:25:49.527Z,18.03
2019-02-08T06:30:45.531Z,12.77
2019-02-08T06:35:42.297Z,15.30
2019-02-08T06:40:42.245Z,12.50
2019-02-08T06:45:38.740Z,12.40
2019-02-08T06:50:34.632Z,15.10
2019-02-08T06:55:30.697Z,15.70
2019-02-08T07:00:39.277Z,14.77
2019-02-08T07:06:08.238Z,19.37
2019-02-08T07:11:26.033Z,18.63
2019-02-08T07:16:43.841Z,14.70
2019-02-08T07:22:16.930Z,18.63
2019-02-08T07:27:24.285Z,15.50
2019-02-08T07:32:30.958Z,13.50
2019-02-08T07:37:41.568Z,12.50
2019-02-08T07:42:58.563Z,11.87
2019-02-08T07:48:07.203Z,11.37
2019-02-08T07:53:34.474Z,8.37
2019-02-08T07:58:40.508Z,8.60
2019-02-08T08:04:01.239Z,9.07
2019-02-08T08:09:12.021Z,10.67
2019-02-08T08:14:27.949Z,11.37
2019-02-08T08:19:44.176Z,12.93
2019-02-08T08:25:06.712Z,41.63
2019-02-08T08:30:28.410Z,28.57
2019-02-08T08:36:08.978Z,24.70
2019-02-08T08:42:35.028Z,26.10
2019-02-08T08:47:52.692Z,27.50
2019-02-08T08:53:36.604Z,27.93
2019-02-08T08:59:44.846Z,25.23
2019-02-08T09:05:57.128Z,22.27
2019-02-08T09:11:40.450Z,21.53
2019-02-08T09:17:45.149Z,23.47
2019-02-08T09:24:11.464Z,23.13
2019-02-08T09:29:57.694Z,20.33
2019-02-08T09:36:02.766Z,21.80
2019-02-08T09:41:43.911Z,20.00
2019-02-08T09:47:44.979Z,17.03
2019-02-08T09:53:36.828Z,19.23
2019-02-08T09:59:45.176Z,14.17
2019-02-08T10:06:07.179Z,14.33
2019-02-08T10:12:03.715Z,14.53
2019-02-08T10:18:18.348Z,16.27
2019-02-08T10:23:53.847Z,17.17
2019-02-08T10:30:33.977Z,14.37
2019-02-08T10:36:56.605Z,9.47
2019-02-08T10:42:49.140Z,8.47
2019-02-08T10:48:39.723Z,8.13
2019-02-08T10:55:32.931Z,9.00
2019-02-08T11:16:01.716Z,13.07
2019-02-08T11:41:03.404Z,14.83
